Time;durP1;ratioP1;P1;durP2;ratioP2;P2;SDS_P1;SDS_P2;PMS_P1;PMS_P2;Temp;Humidity;BMP_temperature;BMP_pressure;BME280_temperature;BME280_humidity;BME280_pressure;Samples;Min_cycle;Max_cycle;Signal;HPM_P1;HPM_P2
2023/03/23 00:01:53;;;;;;;8.20;4.00;;;;;;;8.09;61.30;98687.55;105265;1265;75046;-24
2023/03/23 00:04:21;;;;;;;5.40;3.40;;;;;;;8.09;61.21;98687.24;105219;1263;74161;-24
2023/03/23 00:06:49;;;;;;;8.50;2.90;;;;;;;8.06;61.47;98688.96;105184;1263;61101;-24
2023/03/23 00:09:23;;;;;;;6.30;3.40;;;;;;;8.01;61.45;98685.25;105113;1263;61065;-24
2023/03/23 00:11:51;;;;;;;7.30;4.40;;;;;;;7.95;61.61;98685.33;104713;1271;74563;-23
2023/03/23 00:14:22;;;;;;;7.20;4.20;;;;;;;7.88;61.85;98688.66;104870;1271;74388;-23
2023/03/23 00:17:10;;;;;;;6.30;4.40;;;;;;;7.79;62.09;98681.71;104810;1267;73619;-23
2023/03/23 00:19:51;;;;;;;5.10;3.40;;;;;;;7.74;62.43;98678.30;105503;1256;61052;-23
2023/03/23 00:22:20;;;;;;;5.20;3.60;;;;;;;7.68;62.51;98677.19;105602;1256;61631;-24
2023/03/23 00:24:51;;;;;;;7.90;4.10;;;;;;;7.61;62.74;98673.73;105665;1259;74166;-24
2023/03/23 00:27:21;;;;;;;7.20;4.20;;;;;;;7.58;62.85;98674.42;105312;1256;75926;-23
2023/03/23 00:29:55;;;;;;;4.60;3.00;;;;;;;7.56;62.97;98677.91;105659;1256;74055;-24
2023/03/23 00:32:27;;;;;;;7.60;4.40;;;;;;;7.52;63.28;98673.52;105617;1256;61220;-24
2023/03/23 00:34:58;;;;;;;6.90;3.90;;;;;;;7.47;63.58;98670.93;105401;1257;61685;-24
2023/03/23 00:37:27;;;;;;;5.30;4.20;;;;;;;7.41;63.76;98670.73;105608;1256;74355;-24
2023/03/23 00:47:31;;;;;;;4.70;3.50;;;;;;;7.31;64.67;98665.74;102744;1289;599958;-25
2023/03/23 00:49:58;;;;;;;5.00;3.40;;;;;;;7.26;64.72;98668.87;105633;1257;61073;-25
2023/03/23 00:52:25;;;;;;;10.30;5.10;;;;;;;7.25;64.82;98668.42;105637;1259;61161;-25
2023/03/23 00:54:54;;;;;;;5.30;3.20;;;;;;;7.22;64.80;98668.29;105531;1262;72790;-25
2023/03/23 00:57:24;;;;;;;6.10;4.20;;;;;;;7.20;64.96;98669.30;105474;1257;74807;-25
2023/03/23 00:59:52;;;;;;;7.40;4.30;;;;;;;7.15;65.14;98669.30;105125;1257;74038;-25
2023/03/23 01:02:24;;;;;;;7.20;4.60;;;;;;;7.09;65.36;98665.09;104075;1257;2146460;-25
2023/03/23 01:04:52;;;;;;;7.30;3.50;;;;;;;7.04;65.48;98667.04;105490;1257;61613;-25
2023/03/23 01:07:20;;;;;;;4.20;2.50;;;;;;;7.00;65.72;98662.84;105635;1259;73726;-25
2023/03/23 01:09:48;;;;;;;5.80;2.70;;;;;;;7.38;65.07;98660.90;105717;1256;75828;-25
2023/03/23 01:12:15;;;;;;;7.60;5.00;;;;;;;7.94;63.44;98660.50;105627;1256;73563;-25
2023/03/23 01:14:48;;;;;;;7.30;4.00;;;;;;;8.02;62.72;98660.23;105432;1256;61921;-25
2023/03/23 01:17:16;;;;;;;3.80;3.10;;;;;;;7.97;62.89;98656.51;105598;1259;61173;-25
2023/03/23 01:19:44;;;;;;;7.00;3.90;;;;;;;7.77;63.24;98653.50;105624;1256;74340;-24
2023/03/23 01:22:11;;;;;;;5.50;2.70;;;;;;;7.61;63.64;98647.82;105676;1257;75887;-25
2023/03/23 01:24:38;;;;;;;9.30;5.20;;;;;;;7.46;64.28;98648.44;105671;1256;74207;-25
2023/03/23 01:27:07;;;;;;;4.80;3.50;;;;;;;7.34;64.76;98651.70;105620;1256;61898;-25
2023/03/23 01:32:27;;;;;;;5.70;3.80;;;;;;;7.17;65.59;98647.93;104994;1262;74583;-25
2023/03/23 01:34:54;;;;;;;8.00;4.60;;;;;;;7.12;65.97;98644.29;105087;1262;75814;-25
2023/03/23 01:37:26;;;;;;;8.10;4.10;;;;;;;7.07;66.13;98648.81;105098;1266;74219;-25
2023/03/23 01:39:55;;;;;;;9.20;3.10;;;;;;;7.04;66.59;98646.87;105187;1261;61349;-25
2023/03/23 01:42:24;;;;;;;7.10;4.70;;;;;;;6.99;66.53;98643.35;104795;1270;61846;-25
2023/03/23 01:44:52;;;;;;;7.30;4.50;;;;;;;6.97;66.77;98642.48;104752;1264;73578;-24
2023/03/23 01:47:23;;;;;;;5.70;4.10;;;;;;;7.44;66.09;98643.02;105125;1263;75723;-24
2023/03/23 01:49:52;;;;;;;7.10;4.60;;;;;;;7.84;64.68;98640.20;105196;1263;73903;-25
2023/03/23 01:52:26;;;;;;;9.20;6.00;;;;;;;7.82;64.39;98635.30;105101;1263;61811;-24
2023/03/23 01:55:05;;;;;;;10.00;5.80;;;;;;;7.63;64.84;98632.79;104853;1268;61962;-24
2023/03/23 01:57:34;;;;;;;7.30;4.30;;;;;;;7.46;65.32;98631.48;104972;1260;74644;-24
2023/03/23 02:00:14;;;;;;;9.30;5.30;;;;;;;7.29;65.79;98633.79;105238;1260;76007;-24
2023/03/23 02:02:43;;;;;;;8.70;5.80;;;;;;;7.09;66.55;98633.13;105249;1265;74236;-24
2023/03/23 02:05:14;;;;;;;6.60;4.30;;;;;;;6.98;67.07;98632.21;105219;1265;61276;-24
2023/03/23 02:07:48;;;;;;;9.40;5.00;;;;;;;6.89;67.39;98634.61;105138;1267;61264;-24
2023/03/23 02:10:17;;;;;;;9.80;5.70;;;;;;;6.79;67.66;98631.40;105467;1253;74185;-24
2023/03/23 02:12:45;;;;;;;5.90;3.30;;;;;;;6.73;68.22;98630.23;105586;1256;75663;-25
2023/03/23 02:15:16;;;;;;;7.00;4.90;;;;;;;7.20;67.52;98629.23;105593;1253;74159;-24
2023/03/23 02:17:50;;;;;;;10.40;4.90;;;;;;;7.60;66.03;98627.47;105631;1253;61686;-24
2023/03/23 02:20:27;;;;;;;9.60;5.60;;;;;;;7.61;65.71;98630.52;105455;1260;61663;-24
2023/03/23 02:23:15;;;;;;;7.70;4.90;;;;;;;7.44;66.03;98624.16;105626;1253;74661;-24
2023/03/23 02:26:07;;;;;;;6.80;4.80;;;;;;;7.24;66.65;98622.36;105715;1253;75791;-24
2023/03/23 02:28:39;;;;;;;8.60;5.20;;;;;;;7.08;66.95;98625.31;105892;1252;74169;-24
2023/03/23 02:31:23;;;;;;;7.40;4.90;;;;;;;6.92;67.51;98626.77;105697;1253;61882;-24
2023/03/23 02:34:10;;;;;;;9.40;4.80;;;;;;;6.76;68.35;98625.92;105642;1259;61639;-24
2023/03/23 02:36:56;;;;;;;10.30;6.50;;;;;;;6.62;68.90;98620.83;105898;1253;74332;-24
2023/03/23 02:39:23;;;;;;;;;;;;;;;6.59;69.15;98623.13;105680;1259;75943;-24
2023/03/23 02:41:56;;;;;;;9.00;4.90;;;;;;;7.08;68.30;98622.54;105681;1258;73243;-24
2023/03/23 02:44:25;;;;;;;11.00;4.90;;;;;;;7.42;66.91;98623.79;105620;1260;61939;-24
2023/03/23 02:46:52;;;;;;;10.70;5.50;;;;;;;7.41;66.65;98622.70;105688;1253;61040;-24
2023/03/23 02:49:20;;;;;;;8.40;5.70;;;;;;;7.25;67.01;98621.27;105673;1253;74527;-24
2023/03/23 02:51:47;;;;;;;6.70;4.00;;;;;;;7.03;67.76;98618.59;105580;1253;75577;-24
2023/03/23 02:54:14;;;;;;;10.80;5.60;;;;;;;6.86;68.25;98617.08;105465;1253;74656;-24
2023/03/23 02:56:42;;;;;;;9.20;5.90;;;;;;;6.70;68.88;98619.25;105660;1253;62008;-25
2023/03/23 02:59:15;;;;;;;9.60;5.50;;;;;;;6.58;69.54;98621.78;105706;1253;61058;-24
2023/03/23 03:01:43;;;;;;;8.50;5.50;;;;;;;6.49;69.88;98624.20;105654;1253;74650;-26
2023/03/23 03:04:13;;;;;;;10.20;5.80;;;;;;;6.44;70.45;98624.71;105674;1257;75656;-25
2023/03/23 03:07:05;;;;;;;10.90;5.80;;;;;;;6.97;69.31;98626.11;105566;1253;74280;-24
2023/03/23 03:09:40;;;;;;;8.60;5.70;;;;;;;7.34;67.89;98625.25;105650;1253;61737;-25
2023/03/23 03:12:26;;;;;;;13.10;7.10;;;;;;;7.27;67.87;98627.88;105540;1261;61831;-23
2023/03/23 03:15:03;;;;;;;11.30;7.50;;;;;;;7.07;68.52;98628.84;105557;1253;74558;-23
2023/03/23 03:17:30;;;;;;;11.40;6.50;;;;;;;6.91;69.02;98631.52;105340;1253;74867;-23
2023/03/23 03:20:06;;;;;;;12.10;7.20;;;;;;;6.73;70.00;98634.73;105657;1253;74355;-23
2023/03/23 03:22:37;;;;;;;13.70;7.20;;;;;;;6.60;70.48;98636.48;105643;1253;61695;-23
2023/03/23 03:25:05;;;;;;;10.90;6.90;;;;;;;6.53;70.87;98639.77;105537;1253;61438;-23
2023/03/23 03:27:34;;;;;;;8.80;5.30;;;;;;;6.43;71.79;98641.15;105618;1253;73497;-23
2023/03/23 03:30:14;;;;;;;10.20;6.70;;;;;;;7.03;70.11;98640.83;105721;1253;75845;-23
2023/03/23 03:33:00;;;;;;;11.00;6.00;;;;;;;7.55;68.42;98643.92;105663;1253;73846;-23
2023/03/23 03:35:29;;;;;;;9.00;5.60;;;;;;;7.62;67.78;98640.98;105706;1253;62016;-23
2023/03/23 03:38:05;;;;;;;12.70;7.40;;;;;;;7.46;67.96;98641.29;105648;1253;61481;-23
2023/03/23 03:40:33;;;;;;;12.50;6.70;;;;;;;7.28;68.41;98642.52;105631;1261;74571;-23
2023/03/23 03:43:02;;;;;;;9.70;6.80;;;;;;;7.07;68.87;98641.43;105719;1253;75915;-24
2023/03/23 03:45:31;;;;;;;13.90;7.70;;;;;;;6.87;69.49;98636.80;105683;1260;73958;-23
2023/03/23 03:47:58;;;;;;;11.90;7.50;;;;;;;6.68;70.25;98631.30;105862;1254;61993;-23
2023/03/23 03:50:26;;;;;;;10.50;6.50;;;;;;;6.53;70.98;98633.21;105864;1257;61788;-23
2023/03/23 03:52:54;;;;;;;11.40;5.80;;;;;;;6.46;71.54;98638.67;105877;1253;74323;-23
2023/03/23 03:55:22;;;;;;;17.30;8.00;;;;;;;6.89;71.07;98636.84;105680;1255;75910;-23
2023/03/23 03:57:51;;;;;;;13.10;7.70;;;;;;;7.21;69.92;98635.58;105711;1253;74920;-23
2023/03/23 04:00:30;;;;;;;10.50;6.60;;;;;;;7.21;69.65;98636.95;105760;1256;62103;-23
2023/03/23 04:02:59;;;;;;;10.50;7.10;;;;;;;7.09;69.64;98639.51;105740;1257;61490;-23
2023/03/23 04:05:56;;;;;;;11.20;6.80;;;;;;;6.90;70.21;98640.04;105812;1253;74588;-23
2023/03/23 04:08:24;;;;;;;11.90;8.20;;;;;;;6.72;70.99;98639.77;105866;1253;75823;-23
2023/03/23 04:10:54;;;;;;;13.50;7.10;;;;;;;6.60;71.38;98638.75;105870;1257;74506;-23
2023/03/23 04:13:22;;;;;;;12.30;6.50;;;;;;;6.50;72.22;98635.69;105890;1254;61525;-23
2023/03/23 04:16:05;;;;;;;12.10;7.50;;;;;;;6.96;71.55;98638.59;105740;1257;61159;-23
2023/03/23 04:18:33;;;;;;;11.60;7.30;;;;;;;7.25;70.15;98637.48;105569;1261;73549;-23
2023/03/23 04:21:02;;;;;;;13.90;8.20;;;;;;;7.19;70.20;98636.02;105779;1253;75849;-23
2023/03/23 04:23:33;;;;;;;10.60;6.00;;;;;;;7.02;70.65;98637.95;105530;1260;73257;-23
2023/03/23 04:26:03;;;;;;;14.10;7.00;;;;;;;6.84;71.20;98639.84;105345;1256;61217;-24
2023/03/23 04:28:35;;;;;;;11.60;7.40;;;;;;;6.67;71.83;98635.13;105666;1257;61313;-23
2023/03/23 04:31:44;;;;;;;8.30;5.60;;;;;;;6.48;72.56;98639.06;105609;1253;74560;-25
2023/03/23 04:34:20;;;;;;;11.50;6.90;;;;;;;6.61;73.01;98639.36;105662;1253;75776;-24
2023/03/23 04:36:50;;;;;;;13.90;7.30;;;;;;;7.18;71.69;98636.14;105855;1253;74136;-26
2023/03/23 04:39:23;;;;;;;9.30;6.30;;;;;;;7.36;70.61;98637.20;105635;1259;62006;-24
2023/03/23 04:42:01;;;;;;;12.80;7.40;;;;;;;7.27;70.62;98636.15;105658;1257;61684;-25
2023/03/23 04:45:21;;;;;;;11.60;7.90;;;;;;;7.06;71.33;98639.23;102707;1291;600011;-25
2023/03/23 04:48:10;;;;;;;13.90;8.90;;;;;;;6.82;72.00;98642.56;104489;1271;61404;-24
2023/03/23 04:51:00;;;;;;;15.10;8.50;;;;;;;6.68;72.46;98645.74;104536;1274;61639;-24
2023/03/23 04:53:30;;;;;;;7.70;4.90;;;;;;;6.67;73.20;98648.08;104395;1279;72864;-24
2023/03/23 04:56:01;;;;;;;8.90;5.80;;;;;;;7.20;72.13;98646.16;104337;1279;74362;-24
2023/03/23 04:58:33;;;;;;;11.70;7.40;;;;;;;7.53;70.83;98650.09;103142;1269;2057342;-24
2023/03/23 05:01:28;;;;;;;10.50;7.50;;;;;;;7.48;70.51;98648.23;104743;1269;62005;-25
2023/03/23 05:04:16;;;;;;;12.40;6.80;;;;;;;7.33;71.06;98652.64;104704;1272;61907;-24
2023/03/23 05:06:47;;;;;;;13.30;8.50;;;;;;;7.16;71.66;98656.97;104853;1266;73622;-24
2023/03/23 05:09:20;;;;;;;7.40;5.60;;;;;;;7.01;72.39;98656.34;104855;1265;75721;-24
2023/03/23 05:11:47;;;;;;;11.10;6.90;;;;;;;6.86;73.05;98655.84;104750;1266;74143;-23
2023/03/23 05:14:17;;;;;;;15.00;7.10;;;;;;;7.15;73.06;98656.68;105268;1260;61642;-24
2023/03/23 05:16:48;;;;;;;17.00;9.60;;;;;;;7.66;71.39;98660.24;105341;1260;61609;-24
2023/03/23 05:19:18;;;;;;;12.40;7.10;;;;;;;7.76;70.74;98658.92;105605;1257;73556;-24
2023/03/23 05:21:48;;;;;;;13.20;6.90;;;;;;;7.67;70.85;98663.93;105401;1259;75819;-24
2023/03/23 05:24:17;;;;;;;20.80;10.20;;;;;;;7.51;71.25;98660.15;105620;1256;74353;-24
2023/03/23 05:26:48;;;;;;;17.10;9.30;;;;;;;7.38;71.63;98662.82;105620;1255;62814;-24
2023/03/23 05:29:19;;;;;;;;;;;;;;;7.21;72.52;98664.05;105666;1260;61171;-24
2023/03/23 05:31:55;;;;;;;12.20;6.80;;;;;;;7.22;72.97;98661.70;105584;1256;74492;-24
2023/03/23 05:34:23;;;;;;;16.30;8.60;;;;;;;7.70;71.97;98661.50;105508;1254;75817;-24
2023/03/23 05:37:00;;;;;;;18.20;9.60;;;;;;;7.96;70.95;98662.25;105483;1256;74685;-24
2023/03/23 05:39:54;;;;;;;15.90;9.00;;;;;;;7.90;71.03;98662.42;105433;1255;61891;-24
2023/03/23 05:42:22;;;;;;;15.40;9.10;;;;;;;7.78;71.60;98661.91;105612;1259;61945;-24
2023/03/23 05:44:54;;;;;;;13.20;7.10;;;;;;;7.63;72.12;98665.41;105457;1256;74305;-23
2023/03/23 05:47:22;;;;;;;15.70;10.60;;;;;;;7.49;72.79;98662.68;105701;1257;75818;-24
2023/03/23 05:49:55;;;;;;;10.20;6.10;;;;;;;7.68;72.86;98657.64;105617;1256;72777;-24
2023/03/23 05:52:26;;;;;;;16.40;10.00;;;;;;;8.24;71.02;98662.17;105523;1255;61910;-24
2023/03/23 05:54:54;;;;;;;15.90;10.30;;;;;;;8.36;70.35;98662.66;105490;1255;61890;-23
2023/03/23 05:57:22;;;;;;;15.60;10.30;;;;;;;8.39;70.17;98666.75;105339;1256;74349;-24
2023/03/23 06:00:06;;;;;;;9.30;6.10;;;;;;;8.27;70.22;98665.96;105425;1259;75661;-23
2023/03/23 06:02:43;;;;;;;17.00;11.50;;;;;;;8.12;70.89;98666.42;105654;1259;74264;-23
2023/03/23 06:05:15;;;;;;;12.50;8.40;;;;;;;8.02;71.48;98667.52;105647;1256;61873;-24
2023/03/23 06:07:45;;;;;;;15.50;7.90;;;;;;;7.92;71.85;98666.56;105483;1257;61873;-24
2023/03/23 06:10:14;;;;;;;20.00;10.80;;;;;;;8.24;71.60;98671.70;105669;1257;73354;-24
2023/03/23 06:12:46;;;;;;;17.40;10.10;;;;;;;8.70;70.19;98672.52;105556;1256;74698;-23
2023/03/23 06:15:37;;;;;;;17.40;10.20;;;;;;;8.87;69.40;98676.18;105651;1257;74168;-24
2023/03/23 06:18:24;;;;;;;10.20;6.90;;;;;;;8.68;69.97;98672.66;105479;1256;61957;-23
2023/03/23 06:21:19;;;;;;;16.60;9.90;;;;;;;8.60;70.34;98674.52;105155;1261;61926;-24
2023/03/23 06:23:56;;;;;;;16.50;11.00;;;;;;;8.56;70.67;98675.63;105616;1257;74468;-23
2023/03/23 06:26:27;;;;;;;16.60;9.70;;;;;;;8.47;71.23;98673.61;105649;1257;75895;-24
2023/03/23 06:28:57;;;;;;;13.50;7.60;;;;;;;8.65;70.84;98670.10;105395;1256;73096;-28
2023/03/23 06:31:26;;;;;;;15.60;10.40;;;;;;;9.25;69.57;98669.48;105219;1256;61910;-24
2023/03/23 06:33:54;;;;;;;17.20;11.10;;;;;;;9.61;68.05;98669.77;105144;1265;62094;-24
2023/03/23 06:36:28;;;;;;;18.80;11.10;;;;;;;9.67;67.70;98674.00;105445;1256;74567;-24
2023/03/23 06:39:07;;;;;;;19.30;12.10;;;;;;;9.65;67.72;98674.34;105204;1256;74795;-23
2023/03/23 06:41:48;;;;;;;22.70;11.90;;;;;;;9.64;68.16;98675.81;105281;1260;74042;-24
2023/03/23 06:44:20;;;;;;;16.60;11.30;;;;;;;9.74;68.63;98671.85;105555;1257;61893;-23
2023/03/23 06:46:48;;;;;;;24.10;11.60;;;;;;;9.92;68.50;98672.27;105605;1259;61804;-24
2023/03/23 06:49:35;;;;;;;17.40;10.80;;;;;;;10.06;67.86;98670.53;105554;1256;73373;-24
2023/03/23 06:52:11;;;;;;;14.60;10.60;;;;;;;10.13;67.68;98669.95;105574;1257;75882;-22
2023/03/23 06:54:38;;;;;;;13.50;9.50;;;;;;;10.27;67.29;98666.90;105645;1256;73692;-23
2023/03/23 06:57:09;;;;;;;20.70;12.40;;;;;;;10.36;66.85;98667.00;105553;1256;61986;-24
2023/03/23 06:59:36;;;;;;;15.80;10.90;;;;;;;10.52;66.10;98661.11;105333;1262;61626;-24
2023/03/23 07:02:04;;;;;;;15.30;9.60;;;;;;;10.65;65.71;98660.20;105669;1256;74552;-23
2023/03/23 07:04:32;;;;;;;22.90;12.70;;;;;;;10.77;65.31;98658.06;105399;1257;74858;-23
2023/03/23 07:07:13;;;;;;;16.50;10.30;;;;;;;11.00;65.75;98653.98;105449;1257;74188;-25
2023/03/23 07:09:54;;;;;;;14.50;7.80;;;;;;;11.34;64.71;98651.59;105547;1260;61806;-23
2023/03/23 07:12:23;;;;;;;16.90;11.50;;;;;;;11.55;63.39;98656.16;105532;1256;61055;-28
2023/03/23 07:14:51;;;;;;;15.80;10.00;;;;;;;11.64;62.87;98655.54;105415;1256;73344;-23
2023/03/23 07:17:20;;;;;;;17.40;11.10;;;;;;;11.70;62.39;98654.05;105275;1261;75910;-23
2023/03/23 07:20:00;;;;;;;18.90;12.90;;;;;;;11.72;61.87;98652.84;105472;1257;74177;-23
2023/03/23 07:22:27;;;;;;;15.10;9.70;;;;;;;11.76;61.83;98656.32;105159;1260;61910;-23
2023/03/23 07:25:01;;;;;;;16.70;10.70;;;;;;;11.81;61.52;98658.31;105388;1259;61672;-23
2023/03/23 07:27:38;;;;;;;18.30;9.10;;;;;;;11.83;61.04;98658.30;105347;1256;74906;-23
2023/03/23 07:30:10;;;;;;;14.10;10.20;;;;;;;11.81;60.73;98660.73;105369;1256;74851;-23
2023/03/23 07:32:38;;;;;;;18.10;12.30;;;;;;;11.80;60.63;98657.15;105303;1256;74235;-23
2023/03/23 07:35:07;;;;;;;14.50;9.90;;;;;;;11.86;60.63;98652.86;105550;1257;61684;-23
2023/03/23 07:38:08;;;;;;;13.40;9.60;;;;;;;11.97;59.98;98651.63;105411;1261;61898;-23
2023/03/23 07:40:36;;;;;;;16.90;11.00;;;;;;;11.97;59.50;98655.41;105365;1256;74667;-23
2023/03/23 07:43:11;;;;;;;16.40;9.70;;;;;;;12.09;59.72;98658.39;105497;1256;76289;-23
2023/03/23 07:45:59;;;;;;;15.90;9.70;;;;;;;12.32;58.90;98664.02;105299;1256;74100;-24
2023/03/23 07:48:47;;;;;;;21.10;13.40;;;;;;;12.49;58.05;98662.97;105047;1262;61670;-23
2023/03/23 07:51:17;;;;;;;18.70;11.00;;;;;;;12.56;56.58;98663.83;105131;1262;61873;-23
2023/03/23 07:53:49;;;;;;;12.00;8.80;;;;;;;12.58;56.59;98659.63;105081;1260;74579;-24
2023/03/23 07:56:41;;;;;;;15.10;9.40;;;;;;;12.75;56.12;98658.41;105052;1266;75760;-25
2023/03/23 07:59:15;;;;;;;14.10;10.10;;;;;;;12.93;55.20;98657.39;105140;1260;74217;-25
2023/03/23 08:01:43;;;;;;;13.80;9.50;;;;;;;13.06;53.29;98652.33;105326;1262;61919;-24
2023/03/23 08:04:27;;;;;;;12.30;8.20;;;;;;;13.20;52.16;98649.98;105267;1263;61639;-24
2023/03/23 08:07:17;;;;;;;9.80;7.50;;;;;;;13.35;52.07;98651.00;105146;1260;74549;-25
2023/03/23 08:10:14;;;;;;;12.30;7.70;;;;;;;13.45;52.71;98651.66;104722;1260;75728;-25
2023/03/23 08:13:00;;;;;;;11.10;8.10;;;;;;;13.57;52.60;98658.12;105261;1256;73904;-23
2023/03/23 08:15:47;;;;;;;18.10;7.50;;;;;;;13.77;51.09;98654.83;105457;1256;60982;-24
2023/03/23 08:18:34;;;;;;;42.20;8.10;;;;;;;13.96;50.75;98656.15;105425;1256;61666;-23
2023/03/23 08:21:14;;;;;;;8.90;5.70;;;;;;;14.19;50.87;98657.80;105371;1256;74666;-23
2023/03/23 08:23:57;;;;;;;10.90;7.40;;;;;;;14.22;49.78;98655.73;105183;1261;75837;-24
2023/03/23 08:26:37;;;;;;;10.60;7.50;;;;;;;14.25;49.26;98657.19;105204;1257;74239;-24
2023/03/23 08:29:14;;;;;;;10.30;6.60;;;;;;;14.34;48.79;98653.64;105446;1256;61628;-24
2023/03/23 08:32:12;;;;;;;8.80;5.60;;;;;;;14.42;48.86;98649.84;105289;1260;61911;-24
2023/03/23 08:34:41;;;;;;;9.20;6.10;;;;;;;14.66;48.58;98642.63;105492;1256;73660;-24
2023/03/23 08:37:28;;;;;;;8.70;5.40;;;;;;;14.96;47.76;98646.94;105234;1260;75003;-22
2023/03/23 08:40:09;;;;;;;9.70;6.40;;;;;;;15.00;47.22;98649.58;105619;1256;74370;-22
2023/03/23 08:43:01;;;;;;;8.30;5.90;;;;;;;15.12;46.79;98646.80;105288;1256;61933;-24
2023/03/23 08:45:32;;;;;;;9.80;5.80;;;;;;;15.47;46.30;98643.04;105041;1256;61894;-22
2023/03/23 08:48:20;;;;;;;7.80;5.00;;;;;;;15.69;45.72;98641.52;105370;1257;74669;-22
2023/03/23 08:51:07;;;;;;;8.80;6.10;;;;;;;16.13;44.52;98640.05;105322;1256;75630;-23
2023/03/23 08:53:52;;;;;;;6.90;4.30;;;;;;;16.29;44.55;98634.48;105677;1256;74046;-22
2023/03/23 08:56:32;;;;;;;9.20;6.50;;;;;;;16.19;43.24;98626.89;105617;1256;61691;-23
2023/03/23 08:59:20;;;;;;;8.80;6.10;;;;;;;16.21;44.02;98627.11;105242;1259;61921;-23
2023/03/23 09:02:02;;;;;;;10.10;7.00;;;;;;;16.19;44.04;98621.94;105192;1257;74596;-24
2023/03/23 09:04:43;;;;;;;6.80;4.30;;;;;;;16.15;43.30;98623.91;105335;1259;75898;-24
2023/03/23 09:07:14;;;;;;;;;;;;;;;16.16;42.47;98624.86;105104;1257;74195;-23
2023/03/23 09:09:43;;;;;;;6.00;4.70;;;;;;;16.37;43.25;98624.98;105155;1255;61694;-24
2023/03/23 09:12:11;;;;;;;9.60;4.60;;;;;;;16.59;42.67;98623.08;105592;1259;61862;-24
2023/03/23 09:14:39;;;;;;;6.70;4.00;;;;;;;16.59;43.46;98622.92;105323;1257;75402;-23
2023/03/23 09:17:07;;;;;;;8.90;6.00;;;;;;;16.67;42.97;98619.05;105320;1256;74942;-24
2023/03/23 09:19:34;;;;;;;10.30;6.10;;;;;;;16.52;43.14;98621.38;105887;1253;74209;-23
2023/03/23 09:22:03;;;;;;;6.30;4.80;;;;;;;16.43;42.69;98614.50;105941;1251;61897;-24
2023/03/23 09:24:34;;;;;;;5.80;3.60;;;;;;;16.49;43.10;98620.68;105868;1256;62057;-24
2023/03/23 09:27:02;;;;;;;6.60;4.50;;;;;;;16.29;43.38;98621.68;105906;1253;75090;-24
2023/03/23 09:29:30;;;;;;;6.10;3.10;;;;;;;16.35;41.07;98617.87;105565;1256;75519;-24
2023/03/23 09:31:57;;;;;;;5.20;3.20;;;;;;;16.57;40.46;98617.58;105531;1255;74280;-27
2023/03/23 09:34:25;;;;;;;4.20;3.00;;;;;;;16.51;40.79;98615.09;105547;1251;62232;-24
2023/03/23 09:36:53;;;;;;;4.30;2.90;;;;;;;16.59;40.43;98610.42;105583;1255;61926;-24
2023/03/23 09:39:21;;;;;;;7.00;3.10;;;;;;;16.62;40.83;98612.09;105525;1253;75197;-23
2023/03/23 09:42:42;;;;;;;4.60;2.70;;;;;;;16.66;40.47;98611.58;105549;1256;75842;-24
2023/03/23 09:45:23;;;;;;;5.60;2.50;;;;;;;16.49;39.90;98612.98;105071;1263;74244;-24
2023/03/23 09:48:08;;;;;;;3.00;2.20;;;;;;;16.47;40.34;98613.49;105542;1253;61732;-24
2023/03/23 09:50:40;;;;;;;6.90;3.00;;;;;;;16.59;40.52;98618.06;105294;1260;61131;-24
2023/03/23 09:53:11;;;;;;;8.00;2.50;;;;;;;16.76;40.91;98616.59;105326;1260;74119;-25
2023/03/23 09:55:58;;;;;;;4.90;2.90;;;;;;;16.74;40.41;98609.08;105380;1258;76745;-24
2023/03/23 09:58:33;;;;;;;4.20;3.20;;;;;;;16.69;40.82;98603.86;105590;1253;74215;-24
2023/03/23 10:01:11;;;;;;;7.30;2.70;;;;;;;16.88;40.28;98597.38;105647;1256;61987;-25
2023/03/23 10:03:43;;;;;;;4.50;2.50;;;;;;;16.94;39.61;98597.07;105703;1254;61894;-24
2023/03/23 10:06:13;;;;;;;3.00;2.10;;;;;;;16.66;39.66;98585.34;105433;1253;75461;-23
2023/03/23 10:08:44;;;;;;;3.10;1.90;;;;;;;16.60;40.15;98591.89;105227;1261;76262;-23
2023/03/23 10:11:29;;;;;;;3.10;1.60;;;;;;;16.70;39.95;98588.34;105329;1253;73889;-23
2023/03/23 10:59:34;;;;;;;3.60;2.30;;;;;;;17.51;36.74;98564.30;104267;1270;615156;-23
2023/03/23 11:02:03;;;;;;;13.10;3.20;;;;;;;17.36;37.27;98561.77;104824;1264;62128;-23
2023/03/23 11:04:32;;;;;;;4.10;2.20;;;;;;;17.65;36.68;98556.02;104869;1270;61200;-23
2023/03/23 11:07:01;;;;;;;3.50;2.10;;;;;;;18.20;36.34;98557.77;105180;1268;72767;-23
2023/03/23 11:09:39;;;;;;;4.30;2.40;;;;;;;18.69;35.05;98550.94;104807;1273;74807;-23
2023/03/23 11:12:18;;;;;;;7.90;1.70;;;;;;;18.80;34.31;98548.73;103312;1269;2210281;-23
2023/03/23 11:14:46;;;;;;;3.30;1.90;;;;;;;18.68;34.47;98554.70;104874;1264;61699;-27
2023/03/23 11:17:24;;;;;;;2.90;2.30;;;;;;;18.55;34.15;98552.95;105157;1264;62058;-23
2023/03/23 11:19:51;;;;;;;3.00;2.00;;;;;;;18.94;34.39;98547.20;105632;1262;73661;-23
2023/03/23 11:22:31;;;;;;;4.30;2.20;;;;;;;19.38;34.12;98539.39;105484;1254;75484;-23
2023/03/23 11:25:04;;;;;;;3.50;2.10;;;;;;;19.50;33.14;98528.98;105557;1254;74707;-23
2023/03/23 11:27:37;;;;;;;2.60;1.70;;;;;;;19.30;33.19;98534.83;105661;1260;61947;-23
2023/03/23 11:30:25;;;;;;;2.70;1.70;;;;;;;19.24;32.99;98534.14;105647;1263;61791;-23
2023/03/23 11:32:52;;;;;;;3.20;2.10;;;;;;;19.02;34.31;98534.44;105594;1254;74543;-23
2023/03/23 11:35:21;;;;;;;4.50;2.30;;;;;;;18.85;34.41;98537.17;105573;1254;75956;-23
2023/03/23 11:37:56;;;;;;;2.70;2.10;;;;;;;18.43;35.01;98529.17;105370;1254;73359;-23
2023/03/23 11:40:35;;;;;;;5.20;2.40;;;;;;;18.29;35.71;98525.42;105624;1254;61787;-23
2023/03/23 11:43:12;;;;;;;2.60;2.00;;;;;;;18.46;35.17;98526.81;105318;1262;61991;-24
2023/03/23 11:45:41;;;;;;;7.10;2.30;;;;;;;18.55;35.21;98525.09;105434;1254;74324;-23
2023/03/23 11:48:15;;;;;;;5.90;2.50;;;;;;;18.66;35.06;98520.52;105489;1254;76656;-23
2023/03/23 11:50:59;;;;;;;2.30;1.70;;;;;;;19.01;35.32;98519.94;105429;1257;74129;-23
2023/03/23 11:53:35;;;;;;;3.30;2.00;;;;;;;19.17;34.00;98509.98;105441;1257;61486;-23
2023/03/23 11:56:26;;;;;;;2.80;2.20;;;;;;;18.96;33.85;98510.65;105365;1264;61717;-23
2023/03/23 11:58:54;;;;;;;3.50;2.10;;;;;;;18.83;33.93;98504.54;105414;1263;73562;-23
2023/03/23 12:01:44;;;;;;;3.50;1.80;;;;;;;18.60;34.34;98504.16;105340;1257;75565;-23
2023/03/23 12:04:33;;;;;;;2.70;2.00;;;;;;;18.81;34.94;98498.81;105454;1258;74233;-23
2023/03/23 12:07:22;;;;;;;3.60;1.80;;;;;;;19.10;34.54;98498.13;105294;1257;61501;-23
2023/03/23 12:10:04;;;;;;;2.20;1.80;;;;;;;19.24;33.55;98494.88;105300;1265;61206;-23
2023/03/23 12:12:57;;;;;;;2.50;1.50;;;;;;;19.11;33.70;98494.92;105150;1257;74444;-23
2023/03/23 12:15:42;;;;;;;3.50;1.50;;;;;;;18.91;33.49;98490.52;105627;1260;76453;-23
2023/03/23 12:18:22;;;;;;;1.90;1.70;;;;;;;18.65;33.51;98488.67;105579;1260;74201;-23
2023/03/23 12:21:10;;;;;;;1.50;1.40;;;;;;;18.53;33.59;98487.33;105274;1261;61887;-23
2023/03/23 12:23:53;;;;;;;4.40;1.60;;;;;;;18.65;34.02;98481.80;105645;1260;61630;-23
2023/03/23 12:26:24;;;;;;;3.50;1.30;;;;;;;18.81;33.96;98479.70;105347;1265;74560;-23
2023/03/23 12:29:00;;;;;;;2.10;1.60;;;;;;;18.67;33.95;98482.77;105073;1257;75904;-23
2023/03/23 12:31:43;;;;;;;2.90;1.30;;;;;;;18.78;34.03;98471.72;105210;1258;74171;-23
2023/03/23 12:34:16;;;;;;;2.60;1.40;;;;;;;18.83;33.77;98474.88;105343;1257;61817;-24
2023/03/23 12:36:49;;;;;;;2.00;1.40;;;;;;;18.86;33.60;98470.40;105399;1262;61914;-23
2023/03/23 12:39:48;;;;;;;3.60;1.30;;;;;;;18.80;33.39;98464.08;105349;1258;73635;-24
2023/03/23 12:42:20;;;;;;;1.30;1.20;;;;;;;18.70;32.95;98458.56;105635;1257;74813;-23
2023/03/23 12:44:50;;;;;;;1.80;1.30;;;;;;;18.70;33.37;98460.27;105269;1258;74003;-23
2023/03/23 12:47:40;;;;;;;1.60;1.30;;;;;;;18.71;33.69;98455.36;105173;1263;61739;-23
2023/03/23 12:50:22;;;;;;;3.70;1.50;;;;;;;18.64;33.48;98452.03;105721;1255;61167;-23
2023/03/23 12:53:11;;;;;;;1.90;1.40;;;;;;;18.45;33.42;98452.43;105651;1255;74515;-23
2023/03/23 12:55:47;;;;;;;3.80;1.40;;;;;;;18.36;33.61;98447.59;105713;1254;76018;-23
2023/03/23 12:58:17;;;;;;;1.80;1.00;;;;;;;18.29;33.50;98444.51;105625;1263;74181;-24
2023/03/23 13:01:00;;;;;;;1.60;1.30;;;;;;;18.09;34.14;98437.08;105264;1257;61967;-23